sensor_id;sensor_type;location;lat;lon;timestamp;P1;durP1;ratioP1;P2;durP2;ratioP2
63699;SDS011;49845;47.130;142.766;2023-04-10T00:00:35;24.98;;;13.55;;
63699;SDS011;49845;47.130;142.766;2023-04-10T00:03:08;26.10;;;13.57;;
63699;SDS011;49845;47.130;142.766;2023-04-10T00:05:38;31.17;;;14.38;;
63699;SDS011;49845;47.130;142.766;2023-04-10T00:08:11;28.45;;;13.60;;
63699;SDS011;49845;47.130;142.766;2023-04-10T00:10:41;24.05;;;13.27;;
63699;SDS011;49845;47.130;142.766;2023-04-10T00:13:11;28.80;;;13.52;;
63699;SDS011;49845;47.130;142.766;2023-04-10T00:15:42;23.80;;;12.27;;
63699;SDS011;49845;47.130;142.766;2023-04-10T00:18:13;22.50;;;12.85;;
63699;SDS011;49845;47.130;142.766;2023-04-10T00:20:43;24.45;;;13.55;;
63699;SDS011;49845;47.130;142.766;2023-04-10T00:23:16;23.48;;;11.82;;
63699;SDS011;49845;47.130;142.766;2023-04-10T00:25:49;23.40;;;12.85;;
63699;SDS011;49845;47.130;142.766;2023-04-10T00:28:20;23.00;;;12.48;;
63699;SDS011;49845;47.130;142.766;2023-04-10T00:30:50;29.38;;;13.35;;
63699;SDS011;49845;47.130;142.766;2023-04-10T00:33:20;25.13;;;11.93;;
63699;SDS011;49845;47.130;142.766;2023-04-10T00:35:51;25.25;;;12.63;;
63699;SDS011;49845;47.130;142.766;2023-04-10T00:38:23;24.42;;;12.85;;
63699;SDS011;49845;47.130;142.766;2023-04-10T00:40:54;28.88;;;12.55;;
63699;SDS011;49845;47.130;142.766;2023-04-10T00:43:24;21.63;;;12.35;;
63699;SDS011;49845;47.130;142.766;2023-04-10T00:45:55;24.85;;;11.18;;
63699;SDS011;49845;47.130;142.766;2023-04-10T00:48:25;22.48;;;11.90;;
63699;SDS011;49845;47.130;142.766;2023-04-10T00:50:56;20.85;;;11.38;;
63699;SDS011;49845;47.130;142.766;2023-04-10T00:53:29;24.25;;;12.00;;
63699;SDS011;49845;47.130;142.766;2023-04-10T00:56:00;27.77;;;12.90;;
63699;SDS011;49845;47.130;142.766;2023-04-10T00:58:31;20.25;;;12.63;;
63699;SDS011;49845;47.130;142.766;2023-04-10T01:01:01;28.08;;;12.38;;
63699;SDS011;49845;47.130;142.766;2023-04-10T01:03:32;20.00;;;12.52;;
63699;SDS011;49845;47.130;142.766;2023-04-10T01:06:04;24.55;;;11.60;;
63699;SDS011;49845;47.130;142.766;2023-04-10T01:08:44;21.58;;;12.35;;
63699;SDS011;49845;47.130;142.766;2023-04-10T01:11:25;25.58;;;12.60;;
63699;SDS011;49845;47.130;142.766;2023-04-10T01:14:06;23.77;;;11.63;;
63699;SDS011;49845;47.130;142.766;2023-04-10T01:16:44;26.25;;;11.88;;
63699;SDS011;49845;47.130;142.766;2023-04-10T01:19:24;21.63;;;12.30;;
63699;SDS011;49845;47.130;142.766;2023-04-10T01:22:07;23.77;;;10.90;;
63699;SDS011;49845;47.130;142.766;2023-04-10T01:24:52;25.08;;;11.77;;
63699;SDS011;49845;47.130;142.766;2023-04-10T01:27:38;23.15;;;11.48;;
63699;SDS011;49845;47.130;142.766;2023-04-10T01:30:22;25.63;;;11.75;;
63699;SDS011;49845;47.130;142.766;2023-04-10T01:32:55;23.83;;;11.43;;
63699;SDS011;49845;47.130;142.766;2023-04-10T01:35:31;21.58;;;12.30;;
63699;SDS011;49845;47.130;142.766;2023-04-10T01:38:03;22.90;;;12.30;;
63699;SDS011;49845;47.130;142.766;2023-04-10T01:40:37;24.33;;;10.98;;
63699;SDS011;49845;47.130;142.766;2023-04-10T01:43:15;23.00;;;11.05;;
63699;SDS011;49845;47.130;142.766;2023-04-10T01:45:48;21.52;;;10.68;;
63699;SDS011;49845;47.130;142.766;2023-04-10T01:48:21;27.15;;;11.43;;
63699;SDS011;49845;47.130;142.766;2023-04-10T01:50:52;30.00;;;10.80;;
63699;SDS011;49845;47.130;142.766;2023-04-10T01:53:24;22.17;;;10.63;;
63699;SDS011;49845;47.130;142.766;2023-04-10T01:55:55;21.88;;;10.40;;
63699;SDS011;49845;47.130;142.766;2023-04-10T01:58:26;17.80;;;9.85;;
63699;SDS011;49845;47.130;142.766;2023-04-10T02:00:58;15.70;;;8.98;;
63699;SDS011;49845;47.130;142.766;2023-04-10T02:03:28;15.57;;;8.40;;
63699;SDS011;49845;47.130;142.766;2023-04-10T02:06:04;14.00;;;8.30;;
63699;SDS011;49845;47.130;142.766;2023-04-10T02:08:41;12.48;;;8.05;;
63699;SDS011;49845;47.130;142.766;2023-04-10T02:11:24;15.07;;;7.35;;
63699;SDS011;49845;47.130;142.766;2023-04-10T02:14:03;16.23;;;7.78;;
63699;SDS011;49845;47.130;142.766;2023-04-10T02:16:39;13.57;;;7.32;;
63699;SDS011;49845;47.130;142.766;2023-04-10T02:19:10;14.45;;;8.23;;
63699;SDS011;49845;47.130;142.766;2023-04-10T02:21:44;15.68;;;7.38;;
63699;SDS011;49845;47.130;142.766;2023-04-10T02:24:15;18.70;;;6.88;;
63699;SDS011;49845;47.130;142.766;2023-04-10T02:26:46;11.35;;;6.28;;
63699;SDS011;49845;47.130;142.766;2023-04-10T02:29:18;13.57;;;6.85;;
63699;SDS011;49845;47.130;142.766;2023-04-10T02:31:50;13.02;;;6.55;;
63699;SDS011;49845;47.130;142.766;2023-04-10T02:34:20;11.63;;;6.07;;
63699;SDS011;49845;47.130;142.766;2023-04-10T02:36:51;11.15;;;6.00;;
63699;SDS011;49845;47.130;142.766;2023-04-10T02:39:21;11.73;;;5.97;;
63699;SDS011;49845;47.130;142.766;2023-04-10T02:41:52;10.75;;;5.72;;
63699;SDS011;49845;47.130;142.766;2023-04-10T02:44:23;13.60;;;6.00;;
63699;SDS011;49845;47.130;142.766;2023-04-10T02:46:55;8.43;;;5.75;;
63699;SDS011;49845;47.130;142.766;2023-04-10T02:49:26;11.77;;;5.80;;
63699;SDS011;49845;47.130;142.766;2023-04-10T02:51:56;10.88;;;5.78;;
63699;SDS011;49845;47.130;142.766;2023-04-10T02:54:27;11.00;;;5.65;;
63699;SDS011;49845;47.130;142.766;2023-04-10T02:56:57;10.50;;;5.55;;
63699;SDS011;49845;47.130;142.766;2023-04-10T02:59:28;11.13;;;6.68;;
63699;SDS011;49845;47.130;142.766;2023-04-10T03:02:01;13.20;;;5.85;;
63699;SDS011;49845;47.130;142.766;2023-04-10T03:04:32;10.40;;;6.43;;
63699;SDS011;49845;47.130;142.766;2023-04-10T03:07:02;13.00;;;6.03;;
63699;SDS011;49845;47.130;142.766;2023-04-10T03:09:33;9.73;;;6.13;;
63699;SDS011;49845;47.130;142.766;2023-04-10T03:12:04;11.45;;;6.03;;
63699;SDS011;49845;47.130;142.766;2023-04-10T03:14:34;12.55;;;5.50;;
63699;SDS011;49845;47.130;142.766;2023-04-10T03:17:06;11.85;;;5.88;;
63699;SDS011;49845;47.130;142.766;2023-04-10T03:19:37;8.35;;;5.63;;
63699;SDS011;49845;47.130;142.766;2023-04-10T03:22:08;9.30;;;5.30;;
63699;SDS011;49845;47.130;142.766;2023-04-10T03:24:39;8.02;;;5.15;;
63699;SDS011;49845;47.130;142.766;2023-04-10T03:27:10;10.25;;;5.25;;
63699;SDS011;49845;47.130;142.766;2023-04-10T03:29:41;10.07;;;4.80;;
63699;SDS011;49845;47.130;142.766;2023-04-10T03:32:13;8.65;;;5.75;;
63699;SDS011;49845;47.130;142.766;2023-04-10T03:34:44;11.15;;;5.38;;
63699;SDS011;49845;47.130;142.766;2023-04-10T03:37:14;8.98;;;5.32;;
63699;SDS011;49845;47.130;142.766;2023-04-10T03:39:46;11.63;;;6.15;;
63699;SDS011;49845;47.130;142.766;2023-04-10T03:42:16;11.90;;;4.95;;
63699;SDS011;49845;47.130;142.766;2023-04-10T03:44:47;9.50;;;5.57;;
63699;SDS011;49845;47.130;142.766;2023-04-10T03:47:19;12.30;;;4.55;;
63699;SDS011;49845;47.130;142.766;2023-04-10T03:49:49;9.40;;;4.80;;
63699;SDS011;49845;47.130;142.766;2023-04-10T03:52:20;12.88;;;4.97;;
63699;SDS011;49845;47.130;142.766;2023-04-10T03:54:50;11.38;;;4.78;;
63699;SDS011;49845;47.130;142.766;2023-04-10T03:57:21;10.60;;;5.03;;
63699;SDS011;49845;47.130;142.766;2023-04-10T03:59:52;9.80;;;5.05;;
63699;SDS011;49845;47.130;142.766;2023-04-10T04:02:24;13.00;;;5.05;;
63699;SDS011;49845;47.130;142.766;2023-04-10T04:04:55;8.32;;;5.00;;
63699;SDS011;49845;47.130;142.766;2023-04-10T04:07:26;9.18;;;5.13;;
63699;SDS011;49845;47.130;142.766;2023-04-10T04:09:57;11.30;;;4.95;;
63699;SDS011;49845;47.130;142.766;2023-04-10T04:12:27;9.65;;;4.63;;
63699;SDS011;49845;47.130;142.766;2023-04-10T04:14:58;9.73;;;5.03;;
63699;SDS011;49845;47.130;142.766;2023-04-10T04:17:30;12.48;;;4.78;;
63699;SDS011;49845;47.130;142.766;2023-04-10T04:20:01;10.20;;;5.15;;
63699;SDS011;49845;47.130;142.766;2023-04-10T04:22:31;10.32;;;4.97;;
63699;SDS011;49845;47.130;142.766;2023-04-10T04:25:02;7.95;;;4.43;;
63699;SDS011;49845;47.130;142.766;2023-04-10T04:27:35;11.25;;;4.65;;
63699;SDS011;49845;47.130;142.766;2023-04-10T04:30:06;9.60;;;4.90;;
63699;SDS011;49845;47.130;142.766;2023-04-10T04:32:39;10.52;;;4.63;;
63699;SDS011;49845;47.130;142.766;2023-04-10T04:35:10;7.03;;;4.70;;
63699;SDS011;49845;47.130;142.766;2023-04-10T04:37:41;14.05;;;4.95;;
63699;SDS011;49845;47.130;142.766;2023-04-10T04:40:11;11.07;;;4.60;;
63699;SDS011;49845;47.130;142.766;2023-04-10T04:42:42;8.13;;;4.25;;
63699;SDS011;49845;47.130;142.766;2023-04-10T04:45:12;7.30;;;4.28;;
63699;SDS011;49845;47.130;142.766;2023-04-10T04:47:44;7.20;;;3.83;;
63699;SDS011;49845;47.130;142.766;2023-04-10T04:50:15;12.23;;;4.55;;
63699;SDS011;49845;47.130;142.766;2023-04-10T04:52:46;10.65;;;4.43;;
63699;SDS011;49845;47.130;142.766;2023-04-10T04:55:17;9.40;;;4.20;;
63699;SDS011;49845;47.130;142.766;2023-04-10T04:57:47;10.45;;;4.35;;
63699;SDS011;49845;47.130;142.766;2023-04-10T05:00:18;6.07;;;4.00;;
63699;SDS011;49845;47.130;142.766;2023-04-10T05:02:50;10.20;;;4.15;;
63699;SDS011;49845;47.130;142.766;2023-04-10T05:05:21;7.53;;;4.18;;
63699;SDS011;49845;47.130;142.766;2023-04-10T05:07:52;9.45;;;4.10;;
63699;SDS011;49845;47.130;142.766;2023-04-10T05:10:22;10.43;;;4.85;;
63699;SDS011;49845;47.130;142.766;2023-04-10T05:12:53;9.38;;;4.40;;
63699;SDS011;49845;47.130;142.766;2023-04-10T05:15:23;16.85;;;5.55;;
63699;SDS011;49845;47.130;142.766;2023-04-10T05:17:55;13.32;;;4.90;;
63699;SDS011;49845;47.130;142.766;2023-04-10T05:20:26;8.63;;;4.75;;
63699;SDS011;49845;47.130;142.766;2023-04-10T05:22:57;7.72;;;4.20;;
63699;SDS011;49845;47.130;142.766;2023-04-10T05:25:27;8.68;;;4.53;;
63699;SDS011;49845;47.130;142.766;2023-04-10T05:27:58;6.65;;;3.95;;
63699;SDS011;49845;47.130;142.766;2023-04-10T05:30:28;7.15;;;4.60;;
63699;SDS011;49845;47.130;142.766;2023-04-10T05:35:49;7.82;;;4.25;;
63699;SDS011;49845;47.130;142.766;2023-04-10T05:38:21;8.57;;;4.28;;
63699;SDS011;49845;47.130;142.766;2023-04-10T05:40:53;8.85;;;4.15;;
63699;SDS011;49845;47.130;142.766;2023-04-10T05:43:24;6.28;;;4.13;;
63699;SDS011;49845;47.130;142.766;2023-04-10T05:45:54;8.13;;;4.18;;
63699;SDS011;49845;47.130;142.766;2023-04-10T05:48:27;8.70;;;4.32;;
63699;SDS011;49845;47.130;142.766;2023-04-10T05:51:00;7.88;;;4.55;;
63699;SDS011;49845;47.130;142.766;2023-04-10T05:53:31;7.22;;;4.25;;
63699;SDS011;49845;47.130;142.766;2023-04-10T05:56:01;8.10;;;4.10;;
63699;SDS011;49845;47.130;142.766;2023-04-10T05:58:32;10.25;;;4.03;;
63699;SDS011;49845;47.130;142.766;2023-04-10T06:01:03;11.60;;;4.85;;
63699;SDS011;49845;47.130;142.766;2023-04-10T06:03:35;6.78;;;4.40;;
63699;SDS011;49845;47.130;142.766;2023-04-10T06:06:07;5.65;;;4.10;;
63699;SDS011;49845;47.130;142.766;2023-04-10T06:08:37;7.40;;;4.32;;
63699;SDS011;49845;47.130;142.766;2023-04-10T06:11:09;8.25;;;4.80;;
63699;SDS011;49845;47.130;142.766;2023-04-10T06:13:39;10.55;;;4.20;;
63699;SDS011;49845;47.130;142.766;2023-04-10T06:16:10;8.02;;;4.25;;
63699;SDS011;49845;47.130;142.766;2023-04-10T06:18:43;9.18;;;4.30;;
63699;SDS011;49845;47.130;142.766;2023-04-10T06:21:14;9.70;;;4.20;;
63699;SDS011;49845;47.130;142.766;2023-04-10T06:23:44;8.25;;;4.40;;
63699;SDS011;49845;47.130;142.766;2023-04-10T06:26:15;8.88;;;4.38;;
63699;SDS011;49845;47.130;142.766;2023-04-10T06:28:46;7.88;;;4.40;;
63699;SDS011;49845;47.130;142.766;2023-04-10T06:31:17;8.10;;;4.25;;
63699;SDS011;49845;47.130;142.766;2023-04-10T06:33:51;9.15;;;4.50;;
63699;SDS011;49845;47.130;142.766;2023-04-10T06:36:22;8.00;;;5.55;;
63699;SDS011;49845;47.130;142.766;2023-04-10T06:38:53;7.07;;;4.57;;
63699;SDS011;49845;47.130;142.766;2023-04-10T06:41:24;8.18;;;3.90;;
63699;SDS011;49845;47.130;142.766;2023-04-10T06:43:55;10.45;;;4.85;;
63699;SDS011;49845;47.130;142.766;2023-04-10T06:46:28;9.68;;;4.20;;
63699;SDS011;49845;47.130;142.766;2023-04-10T06:49:01;7.32;;;4.30;;
63699;SDS011;49845;47.130;142.766;2023-04-10T06:51:31;8.43;;;4.18;;
63699;SDS011;49845;47.130;142.766;2023-04-10T06:54:02;6.38;;;3.75;;
63699;SDS011;49845;47.130;142.766;2023-04-10T06:56:33;7.07;;;3.90;;
63699;SDS011;49845;47.130;142.766;2023-04-10T06:59:04;8.25;;;4.20;;
63699;SDS011;49845;47.130;142.766;2023-04-10T07:01:34;9.52;;;4.07;;
63699;SDS011;49845;47.130;142.766;2023-04-10T07:04:06;14.48;;;4.50;;
63699;SDS011;49845;47.130;142.766;2023-04-10T07:06:37;7.68;;;4.43;;
63699;SDS011;49845;47.130;142.766;2023-04-10T07:09:08;13.30;;;4.43;;
63699;SDS011;49845;47.130;142.766;2023-04-10T07:11:38;7.22;;;4.40;;
63699;SDS011;49845;47.130;142.766;2023-04-10T07:14:09;24.20;;;7.32;;
63699;SDS011;49845;47.130;142.766;2023-04-10T07:16:40;20.67;;;8.57;;
63699;SDS011;49845;47.130;142.766;2023-04-10T07:19:12;26.77;;;9.38;;
63699;SDS011;49845;47.130;142.766;2023-04-10T07:21:43;31.70;;;9.38;;
63699;SDS011;49845;47.130;142.766;2023-04-10T07:24:16;21.25;;;9.75;;
63699;SDS011;49845;47.130;142.766;2023-04-10T07:26:47;22.00;;;8.00;;
63699;SDS011;49845;47.130;142.766;2023-04-10T07:29:17;24.55;;;9.15;;
63699;SDS011;49845;47.130;142.766;2023-04-10T07:31:48;29.65;;;9.60;;
63699;SDS011;49845;47.130;142.766;2023-04-10T07:34:20;25.02;;;9.75;;
63699;SDS011;49845;47.130;142.766;2023-04-10T07:36:52;26.35;;;12.27;;
63699;SDS011;49845;47.130;142.766;2023-04-10T07:39:22;20.80;;;9.73;;
63699;SDS011;49845;47.130;142.766;2023-04-10T07:41:53;21.38;;;9.07;;
63699;SDS011;49845;47.130;142.766;2023-04-10T07:44:25;28.08;;;9.75;;
63699;SDS011;49845;47.130;142.766;2023-04-10T07:46:55;19.48;;;9.13;;
63699;SDS011;49845;47.130;142.766;2023-04-10T07:49:27;17.38;;;9.25;;
63699;SDS011;49845;47.130;142.766;2023-04-10T07:51:58;23.92;;;10.10;;
63699;SDS011;49845;47.130;142.766;2023-04-10T07:54:30;26.67;;;11.00;;
63699;SDS011;49845;47.130;142.766;2023-04-10T07:57:01;21.73;;;10.20;;
63699;SDS011;49845;47.130;142.766;2023-04-10T07:59:32;21.48;;;9.02;;
63699;SDS011;49845;47.130;142.766;2023-04-10T08:02:05;24.52;;;10.55;;
63699;SDS011;49845;47.130;142.766;2023-04-10T08:04:37;22.02;;;9.57;;
63699;SDS011;49845;47.130;142.766;2023-04-10T08:07:09;21.13;;;10.68;;
63699;SDS011;49845;47.130;142.766;2023-04-10T08:09:39;24.67;;;11.88;;
63699;SDS011;49845;47.130;142.766;2023-04-10T08:12:10;32.08;;;11.13;;
63699;SDS011;49845;47.130;142.766;2023-04-10T08:14:40;21.42;;;9.48;;
63699;SDS011;49845;47.130;142.766;2023-04-10T08:17:11;25.48;;;11.25;;
63699;SDS011;49845;47.130;142.766;2023-04-10T08:19:44;24.83;;;11.35;;
63699;SDS011;49845;47.130;142.766;2023-04-10T08:22:14;24.52;;;11.55;;
63699;SDS011;49845;47.130;142.766;2023-04-10T08:24:45;26.20;;;10.77;;
63699;SDS011;49845;47.130;142.766;2023-04-10T08:27:15;29.15;;;12.63;;
63699;SDS011;49845;47.130;142.766;2023-04-10T08:29:46;27.20;;;14.52;;
63699;SDS011;49845;47.130;142.766;2023-04-10T08:32:16;38.42;;;17.92;;
63699;SDS011;49845;47.130;142.766;2023-04-10T08:34:48;67.55;;;31.85;;
63699;SDS011;49845;47.130;142.766;2023-04-10T08:37:19;84.10;;;37.58;;
63699;SDS011;49845;47.130;142.766;2023-04-10T08:39:49;60.83;;;28.42;;
63699;SDS011;49845;47.130;142.766;2023-04-10T08:42:20;57.85;;;27.77;;
63699;SDS011;49845;47.130;142.766;2023-04-10T08:44:50;51.65;;;24.48;;
63699;SDS011;49845;47.130;142.766;2023-04-10T08:47:21;115.90;;;46.08;;
63699;SDS011;49845;47.130;142.766;2023-04-10T08:49:59;101.20;;;45.03;;
63699;SDS011;49845;47.130;142.766;2023-04-10T08:52:34;107.32;;;46.75;;
63699;SDS011;49845;47.130;142.766;2023-04-10T08:55:12;123.13;;;55.55;;
63699;SDS011;49845;47.130;142.766;2023-04-10T08:57:42;98.07;;;43.53;;
63699;SDS011;49845;47.130;142.766;2023-04-10T09:00:26;69.43;;;36.15;;
63699;SDS011;49845;47.130;142.766;2023-04-10T09:03:02;44.22;;;19.05;;
63699;SDS011;49845;47.130;142.766;2023-04-10T09:05:39;29.98;;;12.73;;
63699;SDS011;49845;47.130;142.766;2023-04-10T09:08:09;22.67;;;11.50;;
63699;SDS011;49845;47.130;142.766;2023-04-10T09:10:43;17.52;;;9.05;;
63699;SDS011;49845;47.130;142.766;2023-04-10T09:13:33;19.85;;;8.45;;
63699;SDS011;49845;47.130;142.766;2023-04-10T09:16:06;24.92;;;11.25;;
63699;SDS011;49845;47.130;142.766;2023-04-10T09:18:41;20.55;;;11.95;;
63699;SDS011;49845;47.130;142.766;2023-04-10T09:21:19;18.10;;;9.20;;
63699;SDS011;49845;47.130;142.766;2023-04-10T09:23:58;16.08;;;9.52;;
63699;SDS011;49845;47.130;142.766;2023-04-10T09:26:29;23.48;;;9.65;;
63699;SDS011;49845;47.130;142.766;2023-04-10T09:29:01;18.63;;;8.30;;
63699;SDS011;49845;47.130;142.766;2023-04-10T09:31:33;18.45;;;9.40;;
63699;SDS011;49845;47.130;142.766;2023-04-10T09:34:09;19.80;;;9.32;;
63699;SDS011;49845;47.130;142.766;2023-04-10T09:36:43;20.20;;;10.23;;
63699;SDS011;49845;47.130;142.766;2023-04-10T09:39:31;27.83;;;12.35;;
63699;SDS011;49845;47.130;142.766;2023-04-10T09:42:05;42.05;;;17.05;;
63699;SDS011;49845;47.130;142.766;2023-04-10T09:44:36;38.50;;;16.13;;
63699;SDS011;49845;47.130;142.766;2023-04-10T09:47:14;26.42;;;11.60;;
63699;SDS011;49845;47.130;142.766;2023-04-10T09:49:54;19.98;;;10.32;;
63699;SDS011;49845;47.130;142.766;2023-04-10T09:52:29;14.52;;;9.45;;
63699;SDS011;49845;47.130;142.766;2023-04-10T09:55:08;19.40;;;9.50;;
63699;SDS011;49845;47.130;142.766;2023-04-10T09:57:46;22.58;;;9.00;;
63699;SDS011;49845;47.130;142.766;2023-04-10T10:00:19;17.08;;;9.82;;
63699;SDS011;49845;47.130;142.766;2023-04-10T10:02:49;20.38;;;8.88;;
63699;SDS011;49845;47.130;142.766;2023-04-10T10:05:21;21.50;;;9.13;;
63699;SDS011;49845;47.130;142.766;2023-04-10T10:07:56;35.85;;;17.02;;
63699;SDS011;49845;47.130;142.766;2023-04-10T10:10:29;23.38;;;13.90;;
63699;SDS011;49845;47.130;142.766;2023-04-10T10:13:00;23.42;;;10.50;;
63699;SDS011;49845;47.130;142.766;2023-04-10T10:15:34;22.23;;;9.45;;
63699;SDS011;49845;47.130;142.766;2023-04-10T10:18:08;18.40;;;9.73;;
63699;SDS011;49845;47.130;142.766;2023-04-10T10:20:46;63.35;;;33.58;;
63699;SDS011;49845;47.130;142.766;2023-04-10T10:23:23;62.50;;;32.85;;
63699;SDS011;49845;47.130;142.766;2023-04-10T10:25:54;50.97;;;33.35;;
63699;SDS011;49845;47.130;142.766;2023-04-10T10:28:29;21.75;;;13.77;;
63699;SDS011;49845;47.130;142.766;2023-04-10T10:31:02;23.38;;;13.82;;
63699;SDS011;49845;47.130;142.766;2023-04-10T10:33:34;19.95;;;12.10;;
63699;SDS011;49845;47.130;142.766;2023-04-10T10:36:06;24.13;;;13.70;;
63699;SDS011;49845;47.130;142.766;2023-04-10T10:38:47;36.05;;;21.80;;
63699;SDS011;49845;47.130;142.766;2023-04-10T10:41:34;54.90;;;31.27;;
63699;SDS011;49845;47.130;142.766;2023-04-10T10:44:13;34.67;;;19.80;;
63699;SDS011;49845;47.130;142.766;2023-04-10T10:46:50;24.42;;;13.63;;
63699;SDS011;49845;47.130;142.766;2023-04-10T10:52:41;22.30;;;11.45;;
63699;SDS011;49845;47.130;142.766;2023-04-10T10:55:30;16.80;;;11.63;;
63699;SDS011;49845;47.130;142.766;2023-04-10T10:58:07;18.00;;;11.23;;
63699;SDS011;49845;47.130;142.766;2023-04-10T11:03:37;23.52;;;12.70;;
63699;SDS011;49845;47.130;142.766;2023-04-10T11:06:16;21.92;;;11.23;;
63699;SDS011;49845;47.130;142.766;2023-04-10T11:08:49;25.05;;;11.95;;
63699;SDS011;49845;47.130;142.766;2023-04-10T11:11:23;27.58;;;13.20;;
63699;SDS011;49845;47.130;142.766;2023-04-10T11:14:13;28.30;;;14.98;;
63699;SDS011;49845;47.130;142.766;2023-04-10T11:16:50;25.25;;;14.02;;
63699;SDS011;49845;47.130;142.766;2023-04-10T11:19:23;23.08;;;13.20;;
63699;SDS011;49845;47.130;142.766;2023-04-10T11:22:06;26.95;;;14.02;;
63699;SDS011;49845;47.130;142.766;2023-04-10T11:24:51;32.00;;;14.20;;
63699;SDS011;49845;47.130;142.766;2023-04-10T11:27:46;23.75;;;11.93;;
63699;SDS011;49845;47.130;142.766;2023-04-10T11:30:28;23.77;;;14.65;;
63699;SDS011;49845;47.130;142.766;2023-04-10T11:33:06;30.52;;;19.17;;
63699;SDS011;49845;47.130;142.766;2023-04-10T11:35:36;23.75;;;14.25;;
63699;SDS011;49845;47.130;142.766;2023-04-10T11:38:09;20.85;;;11.43;;
63699;SDS011;49845;47.130;142.766;2023-04-10T11:40:56;20.00;;;10.00;;
63699;SDS011;49845;47.130;142.766;2023-04-10T11:43:32;25.63;;;10.82;;
63699;SDS011;49845;47.130;142.766;2023-04-10T11:46:04;19.17;;;9.95;;
63699;SDS011;49845;47.130;142.766;2023-04-10T11:48:36;18.77;;;10.20;;
63699;SDS011;49845;47.130;142.766;2023-04-10T11:51:08;17.23;;;8.98;;
63699;SDS011;49845;47.130;142.766;2023-04-10T11:53:40;18.17;;;9.90;;
63699;SDS011;49845;47.130;142.766;2023-04-10T11:56:15;21.63;;;10.13;;
63699;SDS011;49845;47.130;142.766;2023-04-10T11:58:51;16.73;;;9.20;;
63699;SDS011;49845;47.130;142.766;2023-04-10T12:01:24;46.20;;;19.70;;
63699;SDS011;49845;47.130;142.766;2023-04-10T12:03:54;47.22;;;25.02;;
63699;SDS011;49845;47.130;142.766;2023-04-10T12:06:25;52.10;;;27.92;;
63699;SDS011;49845;47.130;142.766;2023-04-10T12:08:59;48.35;;;27.10;;
63699;SDS011;49845;47.130;142.766;2023-04-10T12:11:48;24.98;;;12.68;;
63699;SDS011;49845;47.130;142.766;2023-04-10T12:14:31;24.38;;;11.73;;
63699;SDS011;49845;47.130;142.766;2023-04-10T12:17:09;18.05;;;10.65;;
63699;SDS011;49845;47.130;142.766;2023-04-10T12:19:41;15.63;;;10.35;;
63699;SDS011;49845;47.130;142.766;2023-04-10T12:22:13;21.27;;;10.20;;
63699;SDS011;49845;47.130;142.766;2023-04-10T12:24:48;19.67;;;9.75;;
63699;SDS011;49845;47.130;142.766;2023-04-10T12:27:23;224.68;;;65.13;;
63699;SDS011;49845;47.130;142.766;2023-04-10T12:29:56;324.60;;;96.22;;
63699;SDS011;49845;47.130;142.766;2023-04-10T12:32:30;71.07;;;24.50;;
63699;SDS011;49845;47.130;142.766;2023-04-10T12:35:01;33.03;;;15.43;;
63699;SDS011;49845;47.130;142.766;2023-04-10T12:37:45;29.88;;;12.65;;
63699;SDS011;49845;47.130;142.766;2023-04-10T12:40:16;28.08;;;10.68;;
63699;SDS011;49845;47.130;142.766;2023-04-10T12:42:50;20.77;;;10.43;;
63699;SDS011;49845;47.130;142.766;2023-04-10T12:45:23;27.75;;;11.27;;
63699;SDS011;49845;47.130;142.766;2023-04-10T12:48:13;16.95;;;9.35;;
63699;SDS011;49845;47.130;142.766;2023-04-10T12:50:54;18.80;;;10.88;;
63699;SDS011;49845;47.130;142.766;2023-04-10T12:53:25;18.73;;;9.48;;
63699;SDS011;49845;47.130;142.766;2023-04-10T12:55:56;18.15;;;9.90;;
63699;SDS011;49845;47.130;142.766;2023-04-10T12:58:31;24.35;;;11.88;;
63699;SDS011;49845;47.130;142.766;2023-04-10T13:01:04;24.55;;;11.35;;
63699;SDS011;49845;47.130;142.766;2023-04-10T13:03:38;22.88;;;11.30;;
63699;SDS011;49845;47.130;142.766;2023-04-10T13:06:09;19.77;;;10.63;;
63699;SDS011;49845;47.130;142.766;2023-04-10T13:08:40;18.08;;;10.95;;
63699;SDS011;49845;47.130;142.766;2023-04-10T13:11:13;19.27;;;11.10;;
63699;SDS011;49845;47.130;142.766;2023-04-10T13:13:44;23.35;;;11.18;;
63699;SDS011;49845;47.130;142.766;2023-04-10T13:16:17;21.67;;;11.07;;
63699;SDS011;49845;47.130;142.766;2023-04-10T13:18:53;19.75;;;9.82;;
63699;SDS011;49845;47.130;142.766;2023-04-10T13:21:28;21.75;;;10.48;;
63699;SDS011;49845;47.130;142.766;2023-04-10T13:24:00;24.10;;;11.93;;
63699;SDS011;49845;47.130;142.766;2023-04-10T13:26:39;21.25;;;11.50;;
63699;SDS011;49845;47.130;142.766;2023-04-10T13:29:14;21.85;;;10.82;;
63699;SDS011;49845;47.130;142.766;2023-04-10T13:31:49;24.95;;;11.30;;
63699;SDS011;49845;47.130;142.766;2023-04-10T13:34:26;18.02;;;10.27;;
63699;SDS011;49845;47.130;142.766;2023-04-10T13:37:02;22.50;;;11.20;;
63699;SDS011;49845;47.130;142.766;2023-04-10T13:39:35;23.52;;;11.88;;
63699;SDS011;49845;47.130;142.766;2023-04-10T13:42:06;26.15;;;12.68;;
63699;SDS011;49845;47.130;142.766;2023-04-10T13:44:36;24.90;;;11.30;;
63699;SDS011;49845;47.130;142.766;2023-04-10T13:47:09;22.10;;;11.05;;
63699;SDS011;49845;47.130;142.766;2023-04-10T13:49:40;22.33;;;11.52;;
63699;SDS011;49845;47.130;142.766;2023-04-10T13:52:10;29.42;;;13.35;;
63699;SDS011;49845;47.130;142.766;2023-04-10T13:54:41;26.92;;;13.05;;
63699;SDS011;49845;47.130;142.766;2023-04-10T13:57:15;22.92;;;12.55;;
63699;SDS011;49845;47.130;142.766;2023-04-10T13:59:45;27.83;;;12.90;;
63699;SDS011;49845;47.130;142.766;2023-04-10T14:09:56;28.40;;;12.10;;
63699;SDS011;49845;47.130;142.766;2023-04-10T14:12:29;27.17;;;13.63;;
63699;SDS011;49845;47.130;142.766;2023-04-10T14:15:06;27.88;;;12.63;;
63699;SDS011;49845;47.130;142.766;2023-04-10T14:17:39;28.55;;;12.13;;
63699;SDS011;49845;47.130;142.766;2023-04-10T14:20:10;25.70;;;12.63;;
63699;SDS011;49845;47.130;142.766;2023-04-10T14:22:40;24.65;;;13.18;;
63699;SDS011;49845;47.130;142.766;2023-04-10T14:25:14;24.30;;;11.88;;
63699;SDS011;49845;47.130;142.766;2023-04-10T14:27:45;31.23;;;13.73;;
63699;SDS011;49845;47.130;142.766;2023-04-10T14:30:15;25.00;;;12.52;;
63699;SDS011;49845;47.130;142.766;2023-04-10T14:32:48;33.28;;;13.32;;
63699;SDS011;49845;47.130;142.766;2023-04-10T14:35:19;26.08;;;13.02;;
63699;SDS011;49845;47.130;142.766;2023-04-10T14:37:49;19.20;;;12.15;;
63699;SDS011;49845;47.130;142.766;2023-04-10T14:40:23;24.38;;;12.95;;
63699;SDS011;49845;47.130;142.766;2023-04-10T14:42:54;26.13;;;12.18;;
63699;SDS011;49845;47.130;142.766;2023-04-10T14:45:25;25.58;;;12.50;;
63699;SDS011;49845;47.130;142.766;2023-04-10T14:47:58;24.75;;;11.98;;
63699;SDS011;49845;47.130;142.766;2023-04-10T14:50:30;24.45;;;12.07;;
63699;SDS011;49845;47.130;142.766;2023-04-10T14:53:01;28.85;;;12.20;;